Time;durP1;ratioP1;P1;durP2;ratioP2;P2;SDS_P1;SDS_P2;PMS_P1;PMS_P2;Temp;Humidity;BMP_temperature;BMP_pressure;BME280_temperature;BME280_humidity;BME280_pressure;Samples;Min_cycle;Max_cycle;Signal;HPM_P1;HPM_P2
2021/10/03 00:01:11;;;;;;;;;;;16.80;99.60;;;;;;4318459;33;43703;-79
2021/10/03 00:03:45;;;;;;;;;;;16.80;99.70;;;;;;4330029;33;44099;-79
2021/10/03 00:06:20;;;;;;;;;;;16.80;99.70;;;;;;4318035;33;42933;-80
2021/10/03 00:08:55;;;;;;;;;;;16.80;99.70;;;;;;4330338;33;46057;-80
2021/10/03 00:11:37;;;;;;;;;;;16.90;99.90;;;;;;4318103;33;43466;-80
2021/10/03 00:14:07;;;;;;;;;;;16.90;99.70;;;;;;4330800;33;20006;-80
2021/10/03 00:16:43;;;;;;;;;;;16.80;99.70;;;;;;4331396;33;43038;-80
2021/10/03 00:19:19;;;;;;;;;;;16.90;99.80;;;;;;4329797;33;43492;-80
2021/10/03 00:21:52;;;;;;;;;;;16.90;99.80;;;;;;4331322;33;45216;-80
2021/10/03 00:24:26;;;;;;;;;;;16.90;99.90;;;;;;4330292;33;43360;-81
2021/10/03 00:26:53;;;;;;;;;;;16.90;99.80;;;;;;4317481;33;44650;-80
2021/10/03 00:29:23;;;;;;;;;;;16.90;99.90;;;;;;4331116;33;43429;-80
2021/10/03 00:32:01;;;;;;;;;;;16.90;99.90;;;;;;4317870;33;43314;-80
2021/10/03 00:34:38;;;;;;;;;;;17.00;99.80;;;;;;4329942;33;43514;-79
2021/10/03 00:37:16;;;;;;;;;;;16.90;99.90;;;;;;4317960;33;43029;-80
2021/10/03 00:39:51;;;;;;;;;;;17.00;99.90;;;;;;4331044;33;45568;-81
2021/10/03 00:42:28;;;;;;;;;;;17.00;99.90;;;;;;4318100;33;44940;-80
2021/10/03 00:45:04;;;;;;;;;;;17.00;99.90;;;;;;4330309;33;20069;-80
2021/10/03 00:47:39;;;;;;;;;;;17.00;99.90;;;;;;4317710;33;44867;-79
2021/10/03 00:50:15;;;;;;;;;;;17.00;99.90;;;;;;4330984;33;45771;-79
2021/10/03 00:52:46;;;;;;;;;;;17.00;99.80;;;;;;4317747;33;45239;-78
2021/10/03 00:55:21;;;;;;;;;;;17.00;99.90;;;;;;4329544;33;43037;-79
2021/10/03 00:57:57;;;;;;;;;;;17.00;99.90;;;;;;4317630;33;43321;-79
2021/10/03 01:00:31;;;;;;;;;;;17.00;99.90;;;;;;4330648;33;44055;-79
2021/10/03 01:03:10;;;;;;;;;;;17.00;99.90;;;;;;4316989;33;46024;-80
2021/10/03 01:05:46;;;;;;;;;;;17.00;99.90;;;;;;4330634;33;45074;-81
2021/10/03 01:08:24;;;;;;;;;;;17.00;99.90;;;;;;4317461;33;44151;-80
2021/10/03 01:11:00;;;;;;;;;;;17.00;99.90;;;;;;4317169;33;43882;-79
2021/10/03 01:13:38;;;;;;;;;;;17.00;99.90;;;;;;4317675;33;42721;-79
2021/10/03 01:16:14;;;;;;;;;;;17.00;99.90;;;;;;4329479;33;44803;-80
2021/10/03 01:18:41;;;;;;;;;;;17.00;99.90;;;;;;4317143;33;44564;-79
2021/10/03 01:21:16;;;;;;;;;;;17.00;99.90;;;;;;4317487;33;42032;-79
2021/10/03 01:23:53;;;;;;;;;;;17.00;99.90;;;;;;4316978;33;43836;-79
2021/10/03 01:26:31;;;;;;;;;;;17.00;99.90;;;;;;4329509;33;42909;-79
2021/10/03 01:29:09;;;;;;;;;;;17.10;99.90;;;;;;4317241;33;45759;-79
2021/10/03 01:31:48;;;;;;;;;;;17.00;99.90;;;;;;4329544;33;43214;-79
2021/10/03 01:34:23;;;;;;;;;;;17.10;99.90;;;;;;4316898;33;44175;-79
2021/10/03 01:37:02;;;;;;;;;;;17.00;99.90;;;;;;4329026;33;43084;-79
2021/10/03 01:39:40;;;;;;;;;;;17.10;99.90;;;;;;4330770;33;43766;-80
2021/10/03 01:42:18;;;;;;;;;;;17.00;99.90;;;;;;4316858;33;43965;-78
2021/10/03 01:44:52;;;;;;;;;;;17.00;99.90;;;;;;4330480;33;44256;-79
2021/10/03 01:47:19;;;;;;;;;;;17.10;99.90;;;;;;4330467;33;42808;-81
2021/10/03 01:49:55;;;;;;;;;;;17.10;99.90;;;;;;4316827;33;42945;-80
2021/10/03 01:52:30;;;;;;;;;;;17.10;99.90;;;;;;4330286;33;44488;-80
2021/10/03 01:55:04;;;;;;;;;;;17.10;99.90;;;;;;4329978;33;44047;-80
2021/10/03 01:57:32;;;;;;;;;;;17.10;99.90;;;;;;4317243;33;43500;-79
2021/10/03 02:00:04;;;;;;;;;;;17.10;99.90;;;;;;4329741;33;44598;-80
2021/10/03 02:02:43;;;;;;;;;;;17.00;99.90;;;;;;4316753;33;46250;-81
2021/10/03 02:05:21;;;;;;;;;;;17.10;99.90;;;;;;4330013;33;43027;-80
2021/10/03 02:07:59;;;;;;;;;;;17.00;99.90;;;;;;4316832;33;45000;-81
2021/10/03 02:10:32;;;;;;;;;;;17.10;99.90;;;;;;4317114;33;43259;-79
2021/10/03 02:13:11;;;;;;;;;;;17.00;99.90;;;;;;4330275;33;43858;-81
2021/10/03 02:15:46;;;;;;;;;;;17.10;99.90;;;;;;4317051;33;44156;-80
2021/10/03 02:18:25;;;;;;;;;;;17.10;99.90;;;;;;4331237;33;19997;-80
2021/10/03 02:21:03;;;;;;;;;;;17.10;99.90;;;;;;4318880;33;45430;-80
2021/10/03 02:23:41;;;;;;;;;;;17.10;99.80;;;;;;4319666;33;43197;-79
2021/10/03 02:26:17;;;;;;;;;;;17.10;99.70;;;;;;4327057;33;42619;-80
2021/10/03 02:28:55;;;;;;;;;;;17.00;99.60;;;;;;4332874;33;43953;-79
2021/10/03 02:31:30;;;;;;;;;;;17.00;99.50;;;;;;4332822;33;44171;-80
2021/10/03 02:34:02;;;;;;;;;;;17.10;99.40;;;;;;4319530;33;45517;-82
2021/10/03 02:36:30;;;;;;;;;;;17.00;99.30;;;;;;4331763;33;44847;-81
2021/10/03 02:39:05;;;;;;;;;;;17.00;99.20;;;;;;4319135;33;44856;-80
2021/10/03 02:41:43;;;;;;;;;;;17.00;99.10;;;;;;4331556;33;44023;-81
2021/10/03 02:44:19;;;;;;;;;;;17.00;99.00;;;;;;4332143;33;43274;-81
2021/10/03 02:46:51;;;;;;;;;;;17.00;98.90;;;;;;4332569;33;45340;-81
2021/10/03 02:49:20;;;;;;;;;;;17.00;98.70;;;;;;4333223;33;20045;-80
2021/10/03 02:51:58;;;;;;;;;;;17.00;98.60;;;;;;4332074;33;43880;-81
2021/10/03 02:54:33;;;;;;;;;;;17.00;98.60;;;;;;4318919;33;43943;-81
2021/10/03 02:57:06;;;;;;;;;;;17.00;98.50;;;;;;4318836;33;43666;-81
2021/10/03 02:59:47;;;;;;;;;;;17.00;98.50;;;;;;4319719;33;45893;-80
2021/10/03 03:02:23;;;;;;;;;;;17.00;98.20;;;;;;4332220;33;43518;-82
2021/10/03 03:04:50;;;;;;;;;;;17.00;98.10;;;;;;4331675;33;44340;-81
2021/10/03 03:07:22;;;;;;;;;;;17.00;98.30;;;;;;4318583;33;44109;-83
2021/10/03 03:09:55;;;;;;;;;;;17.00;98.20;;;;;;4318974;33;43610;-80
2021/10/03 03:12:25;;;;;;;;;;;17.00;98.00;;;;;;4331725;33;44292;-80
2021/10/03 03:15:01;;;;;;;;;;;17.00;98.00;;;;;;4331116;33;46122;-82
2021/10/03 03:17:36;;;;;;;;;;;17.00;98.00;;;;;;4318721;33;44200;-81
2021/10/03 03:20:12;;;;;;;;;;;17.00;98.10;;;;;;4332269;33;20013;-80
2021/10/03 03:22:48;;;;;;;;;;;17.00;97.90;;;;;;4319045;33;45949;-81
2021/10/03 03:25:18;;;;;;;;;;;17.00;97.80;;;;;;4318671;33;44145;-82
2021/10/03 03:27:48;;;;;;;;;;;17.00;97.90;;;;;;4318368;33;44424;-81
2021/10/03 03:30:23;;;;;;;;;;;17.00;97.80;;;;;;4330768;33;44368;-83
2021/10/03 03:32:56;;;;;;;;;;;17.00;97.70;;;;;;4318738;33;43187;-82
2021/10/03 03:35:26;;;;;;;;;;;17.00;97.80;;;;;;4330357;33;43656;-82
2021/10/03 03:37:54;;;;;;;;;;;17.00;97.60;;;;;;4318747;33;44204;-80
2021/10/03 03:40:29;;;;;;;;;;;17.00;97.60;;;;;;4331428;33;42875;-82
2021/10/03 03:42:57;;;;;;;;;;;17.00;97.60;;;;;;4318831;33;43475;-80
2021/10/03 03:45:24;;;;;;;;;;;17.00;97.60;;;;;;4331799;33;43691;-81
2021/10/03 03:47:51;;;;;;;;;;;17.00;97.50;;;;;;4318093;33;46155;-83
2021/10/03 03:50:29;;;;;;;;;;;17.00;97.50;;;;;;4318623;33;43904;-83
2021/10/03 03:53:01;;;;;;;;;;;17.00;97.40;;;;;;4331295;33;43462;-81
2021/10/03 03:55:40;;;;;;;;;;;17.00;97.50;;;;;;4331528;33;45329;-82
2021/10/03 03:58:15;;;;;;;;;;;17.00;97.40;;;;;;4330123;33;42739;-81
2021/10/03 04:00:50;;;;;;;;;;;17.00;97.50;;;;;;4318404;33;44383;-81
2021/10/03 04:03:17;;;;;;;;;;;17.00;97.40;;;;;;4330957;33;45732;-82
2021/10/03 04:05:52;;;;;;;;;;;16.90;97.40;;;;;;4331562;33;44565;-82
2021/10/03 04:08:25;;;;;;;;;;;17.00;97.50;;;;;;4329958;33;42914;-81
2021/10/03 04:10:57;;;;;;;;;;;16.90;97.40;;;;;;4318408;33;43931;-82
2021/10/03 04:13:31;;;;;;;;;;;16.90;97.40;;;;;;4330255;33;43407;-81
2021/10/03 04:15:59;;;;;;;;;;;16.90;97.40;;;;;;4318074;33;43455;-82
2021/10/03 04:18:32;;;;;;;;;;;16.90;97.40;;;;;;4329722;33;45744;-80
2021/10/03 04:21:08;;;;;;;;;;;16.90;97.40;;;;;;4318620;33;20413;-81
2021/10/03 04:23:40;;;;;;;;;;;16.80;97.30;;;;;;4330161;33;43869;-81
2021/10/03 04:26:08;;;;;;;;;;;16.90;97.40;;;;;;4318119;33;42358;-81
2021/10/03 04:28:46;;;;;;;;;;;16.80;97.40;;;;;;4331440;33;43957;-81
2021/10/03 04:31:14;;;;;;;;;;;16.80;97.40;;;;;;4318185;33;43959;-83
2021/10/03 04:33:42;;;;;;;;;;;16.80;97.30;;;;;;4330954;33;44167;-81
2021/10/03 04:36:17;;;;;;;;;;;16.80;97.40;;;;;;4318399;33;42899;-81
2021/10/03 04:38:44;;;;;;;;;;;16.80;97.30;;;;;;4317418;33;42708;-79
2021/10/03 04:41:11;;;;;;;;;;;16.80;97.20;;;;;;4317563;33;43020;-81
2021/10/03 04:43:44;;;;;;;;;;;16.80;97.30;;;;;;4317174;33;43931;-81
2021/10/03 04:46:14;;;;;;;;;;;16.80;97.20;;;;;;4329841;33;45436;-81
2021/10/03 04:48:44;;;;;;;;;;;16.80;97.10;;;;;;4330939;33;43979;-81
2021/10/03 04:51:13;;;;;;;;;;;16.80;97.20;;;;;;4331653;33;19998;-79
2021/10/03 04:53:46;;;;;;;;;;;16.70;97.10;;;;;;4330691;33;43411;-81
2021/10/03 04:56:15;;;;;;;;;;;16.70;97.10;;;;;;4317978;33;44401;-80
2021/10/03 04:58:47;;;;;;;;;;;16.70;97.10;;;;;;4329590;33;43596;-81
2021/10/03 05:01:17;;;;;;;;;;;16.70;97.10;;;;;;4330724;33;43233;-81
2021/10/03 05:03:49;;;;;;;;;;;16.70;97.50;;;;;;4330459;33;42976;-82
2021/10/03 05:06:19;;;;;;;;;;;16.80;97.10;;;;;;4330368;33;43818;-81
2021/10/03 05:08:55;;;;;;;;;;;16.70;97.00;;;;;;4329297;33;45570;-81
2021/10/03 05:11:28;;;;;;;;;;;16.70;97.00;;;;;;4330595;33;43680;-82
2021/10/03 05:14:06;;;;;;;;;;;16.70;97.10;;;;;;4329552;33;45964;-80
2021/10/03 05:16:40;;;;;;;;;;;16.70;96.90;;;;;;4317593;33;44166;-82
2021/10/03 05:19:13;;;;;;;;;;;16.70;97.00;;;;;;4330620;33;44610;-80
2021/10/03 05:21:48;;;;;;;;;;;16.80;96.90;;;;;;4331249;33;19994;-81
2021/10/03 05:24:18;;;;;;;;;;;16.80;97.00;;;;;;4317016;33;42765;-82
2021/10/03 05:26:45;;;;;;;;;;;16.70;97.00;;;;;;4330476;33;44386;-81
2021/10/03 05:29:15;;;;;;;;;;;16.70;97.00;;;;;;4329731;33;46320;-81
2021/10/03 05:31:42;;;;;;;;;;;16.70;97.00;;;;;;4317326;33;45769;-80
2021/10/03 05:34:13;;;;;;;;;;;16.80;97.00;;;;;;4317267;33;44695;-81
2021/10/03 05:36:50;;;;;;;;;;;16.80;97.00;;;;;;4330421;33;42418;-81
2021/10/03 05:39:25;;;;;;;;;;;16.80;97.00;;;;;;4330394;33;44350;-81
2021/10/03 05:42:01;;;;;;;;;;;16.70;97.10;;;;;;4330617;33;44296;-80
2021/10/03 05:44:33;;;;;;;;;;;16.80;97.10;;;;;;4317420;33;44232;-79
2021/10/03 05:47:06;;;;;;;;;;;16.70;97.10;;;;;;4330131;33;43742;-79
2021/10/03 05:49:33;;;;;;;;;;;16.80;97.20;;;;;;4330425;33;43404;-79
2021/10/03 05:52:06;;;;;;;;;;;16.70;97.20;;;;;;4330376;33;44029;-79
2021/10/03 05:54:33;;;;;;;;;;;16.70;97.20;;;;;;4331338;33;44609;-80
2021/10/03 05:57:08;;;;;;;;;;;16.80;97.20;;;;;;4332980;33;44361;-80
2021/10/03 05:59:41;;;;;;;;;;;16.70;97.20;;;;;;4332163;33;43981;-80
2021/10/03 06:02:13;;;;;;;;;;;16.70;97.30;;;;;;4332478;33;44867;-79
2021/10/03 06:04:46;;;;;;;;;;;16.70;97.30;;;;;;4331747;33;44626;-79
2021/10/03 06:07:21;;;;;;;;;;;16.70;97.30;;;;;;4333403;33;44819;-79
2021/10/03 06:09:54;;;;;;;;;;;16.70;97.40;;;;;;4320011;33;44173;-80
2021/10/03 06:12:21;;;;;;;;;;;16.70;97.40;;;;;;4332668;33;44203;-80
2021/10/03 06:14:51;;;;;;;;;;;16.80;97.40;;;;;;4319898;33;43348;-80
2021/10/03 06:17:18;;;;;;;;;;;16.70;97.40;;;;;;4319557;33;43292;-79
2021/10/03 06:19:49;;;;;;;;;;;16.70;97.40;;;;;;4331714;33;42787;-80
2021/10/03 06:22:24;;;;;;;;;;;16.80;97.50;;;;;;4320389;33;19993;-80
2021/10/03 06:25:00;;;;;;;;;;;16.80;97.50;;;;;;4332999;33;44829;-80
2021/10/03 06:27:31;;;;;;;;;;;16.80;97.50;;;;;;4332424;33;44649;-81
2021/10/03 06:30:01;;;;;;;;;;;16.80;97.60;;;;;;4331981;33;42934;-80
2021/10/03 06:32:28;;;;;;;;;;;16.80;97.60;;;;;;4319151;33;43609;-80
2021/10/03 06:35:01;;;;;;;;;;;16.80;97.60;;;;;;4332207;33;43698;-80
2021/10/03 06:37:28;;;;;;;;;;;16.80;97.60;;;;;;4319178;33;43536;-80
2021/10/03 06:39:55;;;;;;;;;;;16.80;97.60;;;;;;4332770;33;43911;-81
2021/10/03 06:42:25;;;;;;;;;;;16.80;97.70;;;;;;4331517;33;43028;-81
2021/10/03 06:44:52;;;;;;;;;;;16.80;97.70;;;;;;4319473;33;44203;-79
2021/10/03 06:47:30;;;;;;;;;;;16.80;97.70;;;;;;4319761;33;45371;-80
2021/10/03 06:50:00;;;;;;;;;;;16.90;97.80;;;;;;4319018;33;42838;-80
2021/10/03 06:52:27;;;;;;;;;;;16.90;97.80;;;;;;4319927;33;20009;-80
2021/10/03 06:54:57;;;;;;;;;;;16.90;97.90;;;;;;4318852;33;42791;-80
2021/10/03 06:57:24;;;;;;;;;;;16.90;97.90;;;;;;4319409;33;45649;-79
2021/10/03 06:59:56;;;;;;;;;;;16.90;98.00;;;;;;4332167;33;43533;-80
2021/10/03 07:02:26;;;;;;;;;;;16.90;98.00;;;;;;4318634;33;45179;-76
2021/10/03 07:04:56;;;;;;;;;;;16.90;98.10;;;;;;4331957;33;43723;-79
2021/10/03 07:07:24;;;;;;;;;;;16.90;98.10;;;;;;4331918;33;42247;-80
2021/10/03 07:09:51;;;;;;;;;;;16.90;98.10;;;;;;4331981;33;43502;-80
2021/10/03 07:12:24;;;;;;;;;;;16.90;98.30;;;;;;4332091;33;43039;-79
2021/10/03 07:14:54;;;;;;;;;;;16.90;98.20;;;;;;4319096;33;44892;-78
2021/10/03 07:17:24;;;;;;;;;;;16.90;98.30;;;;;;4331280;33;42801;-79
2021/10/03 07:19:53;;;;;;;;;;;16.90;98.30;;;;;;4318596;33;44121;-79
2021/10/03 07:22:24;;;;;;;;;;;16.90;98.40;;;;;;4331242;33;43855;-80
2021/10/03 07:24:56;;;;;;;;;;;16.90;98.40;;;;;;4331867;33;43658;-80
2021/10/03 07:27:26;;;;;;;;;;;16.90;98.60;;;;;;4318978;33;43970;-80
2021/10/03 07:29:54;;;;;;;;;;;16.90;98.60;;;;;;4331092;33;44186;-80
2021/10/03 07:32:22;;;;;;;;;;;16.90;98.60;;;;;;4318850;33;43477;-80
2021/10/03 07:34:56;;;;;;;;;;;16.90;98.70;;;;;;4319322;33;43037;-80
2021/10/03 07:37:32;;;;;;;;;;;16.90;98.70;;;;;;4318469;33;45675;-81
2021/10/03 07:40:01;;;;;;;;;;;16.90;98.70;;;;;;4331449;33;42475;-80
2021/10/03 07:42:36;;;;;;;;;;;16.90;98.70;;;;;;4318290;33;42846;-81
2021/10/03 07:45:09;;;;;;;;;;;16.90;98.80;;;;;;4331887;33;43940;-81
2021/10/03 07:47:37;;;;;;;;;;;16.90;98.80;;;;;;4318509;33;43693;-82
2021/10/03 07:50:07;;;;;;;;;;;16.90;98.90;;;;;;4331474;33;42479;-80
2021/10/03 07:52:37;;;;;;;;;;;16.90;98.80;;;;;;4331389;33;43161;-81
2021/10/03 07:55:06;;;;;;;;;;;16.90;98.80;;;;;;4318789;33;20423;-80
2021/10/03 07:57:42;;;;;;;;;;;17.00;99.00;;;;;;4318611;33;42439;-82
2021/10/03 08:00:10;;;;;;;;;;;16.90;98.90;;;;;;4331779;33;43196;-80
2021/10/03 08:02:40;;;;;;;;;;;17.00;99.00;;;;;;4318047;33;43325;-81
2021/10/03 08:05:12;;;;;;;;;;;17.00;99.10;;;;;;4331339;33;45718;-81
2021/10/03 08:07:39;;;;;;;;;;;17.00;99.00;;;;;;4330348;33;43245;-81
2021/10/03 08:10:15;;;;;;;;;;;17.00;99.10;;;;;;4317870;33;43497;-81
2021/10/03 08:12:42;;;;;;;;;;;17.00;99.10;;;;;;4331588;33;45524;-80
2021/10/03 08:15:09;;;;;;;;;;;17.00;99.00;;;;;;4317702;33;45253;-81
2021/10/03 08:17:40;;;;;;;;;;;17.10;99.10;;;;;;4330190;33;43608;-82
2021/10/03 08:20:07;;;;;;;;;;;17.00;99.10;;;;;;4317817;33;44218;-80
2021/10/03 08:22:39;;;;;;;;;;;17.10;99.20;;;;;;4330925;33;42938;-82
2021/10/03 08:25:12;;;;;;;;;;;17.10;99.30;;;;;;4330685;33;19994;-80
2021/10/03 08:27:39;;;;;;;;;;;17.10;99.20;;;;;;4318173;33;45805;-79
2021/10/03 08:30:11;;;;;;;;;;;17.10;99.20;;;;;;4317972;33;43981;-81
2021/10/03 08:32:41;;;;;;;;;;;17.10;99.20;;;;;;4317832;33;43161;-80
2021/10/03 08:35:17;;;;;;;;;;;17.10;99.20;;;;;;4317546;33;45284;-80
2021/10/03 08:37:49;;;;;;;;;;;17.20;99.30;;;;;;4330879;33;44910;-80
2021/10/03 08:40:17;;;;;;;;;;;17.20;99.30;;;;;;4318051;33;43815;-83
2021/10/03 08:42:44;;;;;;;;;;;17.20;99.20;;;;;;4330909;33;43688;-80
2021/10/03 08:45:13;;;;;;;;;;;17.30;99.30;;;;;;4330558;33;43274;-81
2021/10/03 08:47:44;;;;;;;;;;;17.30;99.40;;;;;;4330466;33;42785;-81
2021/10/03 08:50:14;;;;;;;;;;;17.30;99.30;;;;;;4317835;33;45774;-81
2021/10/03 08:52:50;;;;;;;;;;;17.30;99.30;;;;;;4317947;33;45326;-81
2021/10/03 08:55:17;;;;;;;;;;;17.30;99.30;;;;;;4331641;33;20016;-80
2021/10/03 08:57:47;;;;;;;;;;;17.30;99.30;;;;;;4330891;33;43270;-82
2021/10/03 09:00:19;;;;;;;;;;;17.30;99.30;;;;;;4317879;33;44775;-79
2021/10/03 09:03:00;;;;;;;;;;;17.30;99.30;;;;;;4329330;33;45037;-81
2021/10/03 09:05:47;;;;;;;;;;;17.30;99.30;;;;;;4317054;33;44036;-80
2021/10/03 09:08:18;;;;;;;;;;;17.30;99.20;;;;;;4310637;33;45016;-81
2021/10/03 09:10:45;;;;;;;;;;;17.40;99.30;;;;;;4317444;33;44280;-81
2021/10/03 09:13:18;;;;;;;;;;;17.40;99.30;;;;;;4317579;33;43347;-81
2021/10/03 09:15:46;;;;;;;;;;;17.40;99.30;;;;;;4317541;33;43804;-82
2021/10/03 09:18:21;;;;;;;;;;;17.40;99.20;;;;;;4317039;33;43061;-80
2021/10/03 09:20:56;;;;;;;;;;;17.40;99.30;;;;;;4329370;33;43890;-79
2021/10/03 09:23:24;;;;;;;;;;;17.50;99.20;;;;;;4317557;33;44212;-79
2021/10/03 09:25:54;;;;;;;;;;;17.50;99.30;;;;;;4317259;33;42894;-79
2021/10/03 09:28:38;;;;;;;;;;;17.50;99.40;;;;;;4330153;33;43846;-81
2021/10/03 09:31:07;;;;;;;;;;;17.50;99.40;;;;;;4330421;33;43053;-80
2021/10/03 09:33:44;;;;;;;;;;;17.50;99.50;;;;;;4330560;33;43252;-79
2021/10/03 09:36:18;;;;;;;;;;;17.50;99.50;;;;;;4317382;33;45747;-80
2021/10/03 09:38:58;;;;;;;;;;;17.50;99.50;;;;;;4317683;33;43074;-80
2021/10/03 09:41:37;;;;;;;;;;;17.50;99.50;;;;;;4330478;33;43733;-81
2021/10/03 09:44:16;;;;;;;;;;;17.50;99.60;;;;;;4330488;33;45252;-80
2021/10/03 09:46:56;;;;;;;;;;;17.50;99.60;;;;;;4329368;33;44328;-79
2021/10/03 09:49:37;;;;;;;;;;;17.50;99.60;;;;;;4330505;33;43697;-79
2021/10/03 09:52:04;;;;;;;;;;;17.50;99.60;;;;;;4330478;33;43871;-77
2021/10/03 09:54:38;;;;;;;;;;;17.50;99.80;;;;;;4329834;33;42962;-78
2021/10/03 09:57:13;;;;;;;;;;;17.50;99.80;;;;;;4331269;33;19994;-80
2021/10/03 09:59:46;;;;;;;;;;;17.50;99.80;;;;;;4317325;33;44810;-78
2021/10/03 10:02:25;;;;;;;;;;;17.50;99.80;;;;;;4317304;33;43589;-80
2021/10/03 10:04:59;;;;;;;;;;;17.50;99.80;;;;;;4317462;33;45851;-79
2021/10/03 10:07:37;;;;;;;;;;;17.50;99.70;;;;;;4330367;33;44723;-80
2021/10/03 10:10:09;;;;;;;;;;;17.50;99.80;;;;;;4317034;33;43245;-78
2021/10/03 10:12:53;;;;;;;;;;;17.50;99.80;;;;;;4330380;33;44365;-79
2021/10/03 10:15:24;;;;;;;;;;;17.50;99.80;;;;;;4316998;33;44816;-79
2021/10/03 10:17:54;;;;;;;;;;;17.50;99.80;;;;;;4316719;33;42794;-77
2021/10/03 10:20:28;;;;;;;;;;;17.50;99.80;;;;;;4316980;33;43063;-79
2021/10/03 10:23:02;;;;;;;;;;;17.50;99.80;;;;;;4316956;33;44353;-78
2021/10/03 10:25:43;;;;;;;;;;;17.50;99.80;;;;;;4316627;33;43052;-79
2021/10/03 10:28:21;;;;;;;;;;;17.50;99.80;;;;;;4316867;33;43867;-80
2021/10/03 10:31:12;;;;;;;;;;;17.50;99.90;;;;;;4328418;33;43181;-78
2021/10/03 10:33:52;;;;;;;;;;;17.50;99.90;;;;;;4330305;33;43235;-79
2021/10/03 10:36:32;;;;;;;;;;;17.50;99.90;;;;;;4330155;33;45696;-80
2021/10/03 10:39:08;;;;;;;;;;;17.50;99.90;;;;;;4330183;33;42081;-80
2021/10/03 10:41:42;;;;;;;;;;;17.50;99.90;;;;;;4332048;33;43535;-79
2021/10/03 10:44:26;;;;;;;;;;;17.50;99.90;;;;;;4332795;33;43885;-79
2021/10/03 10:46:59;;;;;;;;;;;17.50;99.90;;;;;;4332752;33;44079;-81
2021/10/03 10:49:36;;;;;;;;;;;17.50;99.90;;;;;;4319689;33;45763;-80
2021/10/03 10:52:41;;;;;;;;;;;17.50;99.90;;;;;;4319222;33;44744;-81
2021/10/03 10:55:17;;;;;;;;;;;17.50;99.90;;;;;;4274388;33;42415;-80
2021/10/03 10:57:57;;;;;;;;;;;17.50;99.90;;;;;;4327518;33;19998;-79
2021/10/03 11:00:31;;;;;;;;;;;17.50;99.90;;;;;;4332377;33;44596;-80
2021/10/03 11:02:59;;;;;;;;;;;17.50;99.90;;;;;;4318964;33;43069;-80
2021/10/03 11:05:53;;;;;;;;;;;17.50;99.90;;;;;;4331911;33;42653;-80
2021/10/03 11:08:34;;;;;;;;;;;17.50;99.90;;;;;;4318855;33;42111;-79
2021/10/03 11:11:15;;;;;;;;;;;17.60;99.90;;;;;;4331065;33;44114;-79
2021/10/03 11:13:49;;;;;;;;;;;17.60;99.90;;;;;;4319016;33;44330;-79
2021/10/03 11:16:36;;;;;;;;;;;17.60;99.90;;;;;;4318993;33;42210;-80
2021/10/03 11:19:17;;;;;;;;;;;17.60;99.90;;;;;;4331791;33;43370;-79
2021/10/03 11:21:52;;;;;;;;;;;17.60;99.90;;;;;;4332280;33;43490;-81
2021/10/03 11:24:29;;;;;;;;;;;17.60;99.90;;;;;;4332338;33;43482;-80
2021/10/03 11:27:05;;;;;;;;;;;17.60;99.90;;;;;;4332477;33;43187;-79
2021/10/03 11:29:43;;;;;;;;;;;17.60;99.90;;;;;;4318884;33;45733;-80
2021/10/03 11:32:30;;;;;;;;;;;17.60;99.90;;;;;;4326356;33;44888;-80
2021/10/03 11:35:18;;;;;;;;;;;17.60;99.90;;;;;;4318721;33;44169;-79
2021/10/03 11:37:52;;;;;;;;;;;17.60;99.90;;;;;;4318663;33;44224;-79
2021/10/03 11:40:28;;;;;;;;;;;17.60;99.90;;;;;;4318887;33;44224;-79
2021/10/03 11:43:04;;;;;;;;;;;17.60;99.90;;;;;;4318674;33;41939;-80
2021/10/03 11:45:36;;;;;;;;;;;17.60;99.90;;;;;;4331941;33;43108;-79
2021/10/03 11:48:13;;;;;;;;;;;17.60;99.90;;;;;;4330956;33;43834;-78
2021/10/03 11:50:54;;;;;;;;;;;17.60;99.90;;;;;;4331861;33;43672;-79
2021/10/03 11:53:32;;;;;;;;;;;17.60;99.90;;;;;;4330685;33;43979;-80
2021/10/03 11:56:11;;;;;;;;;;;17.60;99.90;;;;;;4331635;33;45119;-78
2021/10/03 11:58:49;;;;;;;;;;;17.60;99.90;;;;;;4330341;33;43850;-78
2021/10/03 12:01:32;;;;;;;;;;;17.50;99.90;;;;;;4332216;33;20637;-78
2021/10/03 12:04:08;;;;;;;;;;;17.60;99.90;;;;;;4330228;33;44498;-79
2021/10/03 12:06:38;;;;;;;;;;;17.60;99.90;;;;;;4331646;33;43521;-79
2021/10/03 12:09:19;;;;;;;;;;;17.60;99.90;;;;;;4318196;33;43046;-79
2021/10/03 12:11:55;;;;;;;;;;;17.50;99.90;;;;;;4318328;33;44817;-79
2021/10/03 12:14:43;;;;;;;;;;;17.50;99.90;;;;;;4329780;33;44131;-78
2021/10/03 12:17:10;;;;;;;;;;;17.50;99.90;;;;;;4318390;33;43774;-80
2021/10/03 12:20:01;;;;;;;;;;;17.60;99.90;;;;;;4318230;33;43372;-79
2021/10/03 12:22:31;;;;;;;;;;;17.60;99.90;;;;;;4331514;33;43854;-79
2021/10/03 12:25:01;;;;;;;;;;;17.60;99.90;;;;;;4317791;33;44192;-79
2021/10/03 12:27:32;;;;;;;;;;;17.60;99.90;;;;;;4317756;33;43221;-79
2021/10/03 12:30:13;;;;;;;;;;;17.60;99.90;;;;;;4330934;33;43751;-78
2021/10/03 12:33:00;;;;;;;;;;;17.60;99.90;;;;;;4332005;33;20036;-79
2021/10/03 12:35:36;;;;;;;;;;;17.60;99.90;;;;;;4330982;33;44505;-79
2021/10/03 12:38:11;;;;;;;;;;;17.60;99.90;;;;;;4318130;33;43104;-79
2021/10/03 12:40:46;;;;;;;;;;;17.60;99.90;;;;;;4329658;33;43657;-79
2021/10/03 12:43:17;;;;;;;;;;;17.60;99.90;;;;;;4331165;33;43867;-79
2021/10/03 12:45:52;;;;;;;;;;;17.60;99.90;;;;;;4330832;33;43350;-80
2021/10/03 12:48:20;;;;;;;;;;;17.60;99.90;;;;;;4331353;33;43477;-80
2021/10/03 12:50:58;;;;;;;;;;;17.60;99.90;;;;;;4317270;33;45411;-80
2021/10/03 12:53:25;;;;;;;;;;;17.60;99.90;;;;;;4330720;33;43890;-79
2021/10/03 12:56:01;;;;;;;;;;;17.60;99.90;;;;;;4317571;33;44208;-80
2021/10/03 12:58:39;;;;;;;;;;;17.70;99.90;;;;;;4330456;33;43807;-79
2021/10/03 13:01:17;;;;;;;;;;;17.60;99.90;;;;;;4317579;33;43843;-81
2021/10/03 13:03:50;;;;;;;;;;;17.70;99.90;;;;;;4317242;33;20442;-81
2021/10/03 13:06:17;;;;;;;;;;;17.60;99.90;;;;;;4330710;33;44093;-81
2021/10/03 13:08:55;;;;;;;;;;;17.60;99.90;;;;;;4329681;33;44548;-80
2021/10/03 13:11:23;;;;;;;;;;;17.70;99.90;;;;;;4317318;33;44006;-80
2021/10/03 13:13:59;;;;;;;;;;;17.60;99.90;;;;;;4317395;33;43302;-78
2021/10/03 13:16:35;;;;;;;;;;;17.70;99.90;;;;;;4329498;33;44056;-79
2021/10/03 13:19:05;;;;;;;;;;;17.60;99.90;;;;;;4330501;33;44024;-78
2021/10/03 13:21:40;;;;;;;;;;;17.60;99.90;;;;;;4316967;33;41334;-78
2021/10/03 13:24:14;;;;;;;;;;;17.60;99.90;;;;;;4330618;33;45768;-78
2021/10/03 13:26:52;;;;;;;;;;;17.60;99.90;;;;;;4330752;33;43271;-78
2021/10/03 13:29:26;;;;;;;;;;;17.60;99.90;;;;;;4330400;33;42626;-78
2021/10/03 13:32:04;;;;;;;;;;;17.50;99.90;;;;;;4329393;33;43935;-80
2021/10/03 13:34:42;;;;;;;;;;;17.40;99.80;;;;;;4318360;33;20037;-78
2021/10/03 13:37:09;;;;;;;;;;;17.40;99.70;;;;;;4328987;33;42918;-80
2021/10/03 13:39:45;;;;;;;;;;;17.30;99.60;;;;;;4317229;33;44146;-79
2021/10/03 13:42:17;;;;;;;;;;;17.20;99.60;;;;;;4330371;33;44106;-79
2021/10/03 13:44:52;;;;;;;;;;;17.10;99.50;;;;;;4330483;33;44187;-79
2021/10/03 13:47:24;;;;;;;;;;;17.10;99.30;;;;;;4330409;33;44450;-78
2021/10/03 13:50:00;;;;;;;;;;;17.00;99.20;;;;;;4330464;33;45841;-79
2021/10/03 13:52:33;;;;;;;;;;;17.00;99.10;;;;;;4330509;33;43873;-78
2021/10/03 13:55:08;;;;;;;;;;;16.90;99.10;;;;;;4330452;33;43764;-78
2021/10/03 13:57:41;;;;;;;;;;;16.80;99.00;;;;;;4330446;33;44085;-78
2021/10/03 14:00:19;;;;;;;;;;;16.70;98.90;;;;;;4317175;33;43242;-78
2021/10/03 14:02:46;;;;;;;;;;;16.60;99.00;;;;;;4328864;33;42615;-78
2021/10/03 14:05:14;;;;;;;;;;;16.50;99.00;;;;;;4330389;33;42411;-79
2021/10/03 14:07:47;;;;;;;;;;;16.50;98.90;;;;;;4329827;33;42603;-79
2021/10/03 14:10:19;;;;;;;;;;;16.50;98.90;;;;;;4328804;33;42454;-79
2021/10/03 14:12:49;;;;;;;;;;;16.50;98.80;;;;;;4330152;33;42658;-78
2021/10/03 14:15:22;;;;;;;;;;;16.50;98.80;;;;;;4330847;33;45114;-78
2021/10/03 14:17:57;;;;;;;;;;;16.40;98.80;;;;;;4332981;33;42840;-79
2021/10/03 14:20:42;;;;;;;;;;;16.40;98.80;;;;;;4332641;33;42914;-78
2021/10/03 14:23:15;;;;;;;;;;;16.40;98.80;;;;;;4333189;33;43819;-78
2021/10/03 14:25:45;;;;;;;;;;;16.30;98.50;;;;;;4333089;33;43725;-79
2021/10/03 14:28:15;;;;;;;;;;;16.20;98.60;;;;;;4332875;33;44556;-79
2021/10/03 14:30:48;;;;;;;;;;;16.20;98.50;;;;;;4332669;33;43028;-78
2021/10/03 14:33:24;;;;;;;;;;;16.20;98.40;;;;;;4332886;33;43570;-79
2021/10/03 14:36:02;;;;;;;;;;;16.20;98.20;;;;;;4333879;33;20010;-79
2021/10/03 14:38:35;;;;;;;;;;;16.30;98.20;;;;;;4331674;33;42858;-79
2021/10/03 14:41:02;;;;;;;;;;;16.20;97.90;;;;;;4332494;33;44035;-79
2021/10/03 14:43:34;;;;;;;;;;;16.20;97.80;;;;;;4319031;33;44933;-79
2021/10/03 14:46:01;;;;;;;;;;;16.20;97.80;;;;;;4319225;33;42999;-78
2021/10/03 14:48:40;;;;;;;;;;;16.20;97.70;;;;;;4319624;33;43040;-78
2021/10/03 14:51:12;;;;;;;;;;;16.20;97.50;;;;;;4332236;33;43845;-80
2021/10/03 14:53:39;;;;;;;;;;;16.20;97.50;;;;;;4332790;33;44322;-79